Mactier, Canada
Current Conditions -  °F | °C
As of 3:00 PM on Sunday 21 Dec 2014 (Local Time) from CYQA Reporting Station
Overcast Overcast  
Wind Chill: 30°   Ceiling: 2900
Heat Index: 30°   Visibility: 9mi
Dew Point: 21°   Wind: 0mph
Humidity: 69%   Direction: NA
Pressure: 30.24"   Gusts: NA
Location:  45.13°N, 79.77°W
Report Text: CYQA 212000Z AUTO 00000KT 9SM OVC029 M01/M06 A3024 RMK SLP256
Loading
Personal Weather Stations






























Interactive Weather Map New forecast layout! Learn more

10-Day Weather Forecast

Advertisements
Track Severe Weather on mobile